Time;durP1;ratioP1;P1;durP2;ratioP2;P2;SDS_P1;SDS_P2;PMS_P1;PMS_P2;Temp;Humidity;BMP_temperature;BMP_pressure;BME280_temperature;BME280_humidity;BME280_pressure;Samples;Min_cycle;Max_cycle;Signal;HPM_P1;HPM_P2
2021/12/26 00:02:04;;;;;;;;;;;;;;;;;;5056189;28;19920;-70
2021/12/26 00:04:31;;;;;;;;;;;;;;;;;;5055013;28;19916;-70
2021/12/26 00:06:56;;;;;;;;;;;;;;;;;;5054883;28;19923;-69
2021/12/26 00:09:22;;;;;;;;;;;;;;;;;;5054852;28;20007;-70
2021/12/26 00:11:48;;;;;;;;;;;;;;;;;;5056054;28;19916;-70
2021/12/26 00:14:13;;;;;;;;;;;;;;;;;;5054853;28;19921;-69
2021/12/26 00:16:38;;;;;;;;;;;;;;;;;;5055690;28;19917;-69
2021/12/26 00:19:04;;;;;;;;;;;;;;;;;;5056240;28;20011;-70
2021/12/26 00:21:29;;;;;;;;;;;;;;;;;;5056058;28;19952;-69
2021/12/26 00:23:57;;;;;;;;;;;;;;;;;;5055696;28;20365;-70
2021/12/26 00:26:22;;;;;;;;;;;;;;;;;;5055561;28;19924;-70
2021/12/26 00:28:47;;;;;;;;;;;;;;;;;;5054521;28;19921;-70
2021/12/26 00:31:14;;;;;;;;;;;;;;;;;;5055962;28;19974;-70
2021/12/26 00:33:40;;;;;;;;;;;;;;;;;;5054459;28;19924;-69
2021/12/26 00:36:05;;;;;;;;;;;;;;;;;;5055571;28;19917;-70
2021/12/26 00:38:32;;;;;;;;;;;;;;;;;;5054377;28;20073;-70
2021/12/26 00:40:58;;;;;;;;;;;;;;;;;;5055523;28;20290;-70
2021/12/26 00:43:23;;;;;;;;;;;;;;;;;;5055597;28;19920;-70
2021/12/26 00:45:48;;;;;;;;;;;;;;;;;;5055398;28;19924;-70
2021/12/26 00:48:14;;;;;;;;;;;;;;;;;;5055586;28;20293;-70
2021/12/26 00:50:40;;;;;;;;;;;;;;;;;;5055381;28;20319;-69
2021/12/26 00:53:06;;;;;;;;;;;;;;;;;;5054256;28;19917;-70
2021/12/26 00:55:31;;;;;;;;;;;;;;;;;;5053777;28;19920;-70
2021/12/26 00:57:57;;;;;;;;;;;;;;;;;;5054252;28;20396;-69
2021/12/26 01:00:28;;;;;;;;;;;;;;;;;;5055267;28;19916;-70
2021/12/26 01:02:54;;;;;;;;;;;;;;;;;;5054661;28;19920;-69
2021/12/26 01:05:21;;;;;;;;;;;;;;;;;;5052933;28;19916;-70
2021/12/26 01:08:00;;;;;;;;;;;;;;;;;;5054978;28;19916;-70
2021/12/26 01:10:33;;;;;;;;;;;;;;;;;;5053857;28;19921;-70
2021/12/26 01:12:59;;;;;;;;;;;;;;;;;;5055210;28;19983;-70
2021/12/26 01:15:28;;;;;;;;;;;;;;;;;;5053537;28;20344;-70
2021/12/26 01:18:08;;;;;;;;;;;;;;;;;;5053307;28;20011;-69
2021/12/26 01:20:42;;;;;;;;;;;;;;;;;;5053398;28;20485;-70
2021/12/26 01:23:08;;;;;;;;;;;;;;;;;;5054870;28;19917;-70
2021/12/26 01:25:33;;;;;;;;;;;;;;;;;;5053258;28;19923;-70
2021/12/26 01:27:59;;;;;;;;;;;;;;;;;;5053318;28;20378;-70
2021/12/26 01:30:26;;;;;;;;;;;;;;;;;;5053422;28;19916;-70
2021/12/26 01:32:54;;;;;;;;;;;;;;;;;;5052835;28;19963;-69
2021/12/26 01:35:35;;;;;;;;;;;;;;;;;;5054492;28;20346;-70
2021/12/26 01:38:18;;;;;;;;;;;;;;;;;;5053313;28;19916;-70
2021/12/26 01:40:54;;;;;;;;;;;;;;;;;;5053160;28;19924;-70
2021/12/26 01:44:03;;;;;;;;;;;;;;;;;;4992361;28;19922;-69
2021/12/26 01:46:49;;;;;;;;;;;;;;;;;;4992319;28;19918;-70
2021/12/26 01:49:18;;;;;;;;;;;;;;;;;;5021822;28;19971;-70
2021/12/26 01:51:46;;;;;;;;;;;;;;;;;;5053016;28;19944;-70
2021/12/26 01:54:13;;;;;;;;;;;;;;;;;;5054416;28;20251;-70
2021/12/26 01:56:39;;;;;;;;;;;;;;;;;;5054316;28;19916;-70
2021/12/26 01:59:07;;;;;;;;;;;;;;;;;;5052690;28;19916;-70
2021/12/26 02:01:40;;;;;;;;;;;;;;;;;;5052616;28;19924;-70
2021/12/26 02:04:06;;;;;;;;;;;;;;;;;;5052511;28;20300;-70
2021/12/26 02:06:32;;;;;;;;;;;;;;;;;;5036282;28;19924;-70
2021/12/26 02:08:57;;;;;;;;;;;;;;;;;;5053961;28;19952;-69
2021/12/26 02:11:23;;;;;;;;;;;;;;;;;;5052783;28;20036;-70
2021/12/26 02:13:48;;;;;;;;;;;;;;;;;;5054009;28;20309;-70
2021/12/26 02:16:14;;;;;;;;;;;;;;;;;;5052107;28;19945;-70
2021/12/26 02:18:40;;;;;;;;;;;;;;;;;;5052311;28;19917;-70
2021/12/26 02:24:07;;;;;;;;;;;;;;;;;;5052671;28;19921;-70
2021/12/26 02:29:17;;;;;;;;;;;;;;;;;;5052370;28;19921;-70
2021/12/26 02:31:43;;;;;;;;;;;;;;;;;;5052060;28;19928;-70
2021/12/26 02:34:09;;;;;;;;;;;;;;;;;;5052334;28;20366;-70
2021/12/26 02:36:34;;;;;;;;;;;;;;;;;;5052195;28;20259;-70
2021/12/26 02:39:00;;;;;;;;;;;;;;;;;;5053535;28;20366;-70
2021/12/26 02:41:26;;;;;;;;;;;;;;;;;;5053631;28;19922;-70
2021/12/26 02:43:51;;;;;;;;;;;;;;;;;;5052181;28;20282;-70
2021/12/26 02:46:16;;;;;;;;;;;;;;;;;;5053558;28;19962;-70
2021/12/26 02:48:42;;;;;;;;;;;;;;;;;;5052328;28;19927;-70
2021/12/26 02:51:09;;;;;;;;;;;;;;;;;;5035977;28;19952;-70
2021/12/26 02:53:34;;;;;;;;;;;;;;;;;;5052035;28;19970;-70
2021/12/26 02:56:00;;;;;;;;;;;;;;;;;;5052093;28;20023;-70
2021/12/26 02:58:25;;;;;;;;;;;;;;;;;;5052229;28;20269;-69
2021/12/26 03:00:55;;;;;;;;;;;;;;;;;;5052348;28;19924;-70
2021/12/26 03:03:20;;;;;;;;;;;;;;;;;;5051989;28;19921;-69
2021/12/26 03:05:53;;;;;;;;;;;;;;;;;;5052292;28;19931;-70
2021/12/26 03:08:18;;;;;;;;;;;;;;;;;;5052007;28;19928;-70
2021/12/26 03:10:44;;;;;;;;;;;;;;;;;;5053108;28;19921;-70
2021/12/26 03:13:10;;;;;;;;;;;;;;;;;;5052139;28;20336;-70
2021/12/26 03:15:36;;;;;;;;;;;;;;;;;;5052004;28;19913;-69
2021/12/26 03:18:02;;;;;;;;;;;;;;;;;;5051916;28;20374;-70
2021/12/26 03:20:31;;;;;;;;;;;;;;;;;;5052061;28;19917;-70
2021/12/26 03:22:59;;;;;;;;;;;;;;;;;;5051587;28;19917;-70
2021/12/26 03:25:25;;;;;;;;;;;;;;;;;;5051758;28;19920;-70
2021/12/26 03:27:51;;;;;;;;;;;;;;;;;;5054139;28;19931;-70
2021/12/26 03:30:21;;;;;;;;;;;;;;;;;;5055724;28;20015;-70
2021/12/26 03:32:48;;;;;;;;;;;;;;;;;;5039212;28;19917;-70
2021/12/26 03:35:14;;;;;;;;;;;;;;;;;;5055677;28;19920;-70
2021/12/26 03:37:40;;;;;;;;;;;;;;;;;;5055393;28;19921;-70
2021/12/26 03:40:23;;;;;;;;;;;;;;;;;;5055737;28;19932;-70
2021/12/26 03:42:51;;;;;;;;;;;;;;;;;;5055418;28;19917;-70
2021/12/26 03:45:16;;;;;;;;;;;;;;;;;;5056815;28;20455;-69
2021/12/26 03:47:42;;;;;;;;;;;;;;;;;;5056872;28;20040;-70
2021/12/26 03:50:07;;;;;;;;;;;;;;;;;;5054939;28;20274;-70
2021/12/26 03:52:33;;;;;;;;;;;;;;;;;;5055414;28;19917;-70
2021/12/26 03:54:59;;;;;;;;;;;;;;;;;;5038135;28;19924;-70
2021/12/26 03:57:24;;;;;;;;;;;;;;;;;;5055029;28;20435;-70
2021/12/26 03:59:50;;;;;;;;;;;;;;;;;;5056692;28;19917;-70
2021/12/26 04:02:15;;;;;;;;;;;;;;;;;;5054472;28;20549;-70
2021/12/26 04:04:42;;;;;;;;;;;;;;;;;;5055121;28;20000;-70
2021/12/26 04:07:10;;;;;;;;;;;;;;;;;;5054362;28;19932;-70
2021/12/26 04:09:35;;;;;;;;;;;;;;;;;;5055046;28;19920;-70
2021/12/26 04:12:01;;;;;;;;;;;;;;;;;;5054737;28;20377;-70
2021/12/26 04:14:26;;;;;;;;;;;;;;;;;;5054994;28;20422;-70
2021/12/26 04:16:52;;;;;;;;;;;;;;;;;;5054700;28;19916;-70
2021/12/26 04:19:18;;;;;;;;;;;;;;;;;;5054839;28;19969;-70
2021/12/26 04:21:43;;;;;;;;;;;;;;;;;;5054642;28;20474;-70
2021/12/26 04:24:09;;;;;;;;;;;;;;;;;;5055060;28;19917;-70
2021/12/26 04:26:34;;;;;;;;;;;;;;;;;;5054602;28;20003;-70
2021/12/26 04:29:00;;;;;;;;;;;;;;;;;;5056060;28;19920;-70
2021/12/26 04:31:25;;;;;;;;;;;;;;;;;;5054179;28;20397;-70
2021/12/26 04:33:51;;;;;;;;;;;;;;;;;;5054586;28;20266;-70
2021/12/26 04:36:16;;;;;;;;;;;;;;;;;;5055541;28;20074;-70
2021/12/26 04:38:43;;;;;;;;;;;;;;;;;;5054316;28;20392;-70
2021/12/26 04:41:10;;;;;;;;;;;;;;;;;;5054106;28;20006;-70
2021/12/26 04:43:54;;;;;;;;;;;;;;;;;;5055718;28;19927;-70
2021/12/26 04:46:35;;;;;;;;;;;;;;;;;;5054118;28;20377;-70
2021/12/26 04:49:03;;;;;;;;;;;;;;;;;;5054398;28;20007;-69
2021/12/26 04:51:28;;;;;;;;;;;;;;;;;;5054109;28;20002;-70
2021/12/26 04:53:57;;;;;;;;;;;;;;;;;;5054276;28;19963;-70
2021/12/26 04:56:23;;;;;;;;;;;;;;;;;;5054274;28;19952;-70
2021/12/26 04:58:48;;;;;;;;;;;;;;;;;;5053581;28;20028;-70
2021/12/26 05:01:14;;;;;;;;;;;;;;;;;;5053710;28;20377;-70
2021/12/26 05:03:40;;;;;;;;;;;;;;;;;;5053900;28;19928;-70
2021/12/26 05:06:05;;;;;;;;;;;;;;;;;;5054984;28;20370;-70
2021/12/26 05:08:30;;;;;;;;;;;;;;;;;;5055171;28;20023;-70
2021/12/26 05:10:56;;;;;;;;;;;;;;;;;;5054994;28;19921;-69
2021/12/26 05:13:23;;;;;;;;;;;;;;;;;;5055004;28;19923;-70
2021/12/26 05:15:49;;;;;;;;;;;;;;;;;;5053754;28;19924;-70
2021/12/26 05:18:15;;;;;;;;;;;;;;;;;;5053788;28;20362;-70
2021/12/26 05:20:42;;;;;;;;;;;;;;;;;;5052933;28;20351;-70
2021/12/26 05:23:07;;;;;;;;;;;;;;;;;;5052926;28;19917;-70
2021/12/26 05:25:33;;;;;;;;;;;;;;;;;;5036886;28;20381;-69
2021/12/26 05:27:59;;;;;;;;;;;;;;;;;;5053335;28;19921;-70
2021/12/26 05:30:25;;;;;;;;;;;;;;;;;;5053228;28;20288;-70
2021/12/26 05:33:14;;;;;;;;;;;;;;;;;;5053470;28;19956;-69
2021/12/26 05:35:39;;;;;;;;;;;;;;;;;;5053038;28;20393;-70
2021/12/26 05:38:06;;;;;;;;;;;;;;;;;;5053347;28;20012;-70
2021/12/26 05:40:32;;;;;;;;;;;;;;;;;;5053327;28;20344;-70
2021/12/26 05:42:58;;;;;;;;;;;;;;;;;;5052967;28;19942;-70
2021/12/26 05:45:23;;;;;;;;;;;;;;;;;;5053170;28;19921;-70
2021/12/26 05:48:07;;;;;;;;;;;;;;;;;;5052267;28;19917;-70
2021/12/26 05:50:33;;;;;;;;;;;;;;;;;;5051254;28;20362;-70
2021/12/26 05:52:58;;;;;;;;;;;;;;;;;;5052914;28;19917;-70
2021/12/26 05:55:24;;;;;;;;;;;;;;;;;;5052843;28;20297;-70
2021/12/26 05:57:51;;;;;;;;;;;;;;;;;;5053176;28;20297;-70
2021/12/26 06:00:18;;;;;;;;;;;;;;;;;;5053016;28;20015;-70
2021/12/26 06:02:43;;;;;;;;;;;;;;;;;;5054070;28;20011;-70
2021/12/26 06:05:10;;;;;;;;;;;;;;;;;;5052804;28;20350;-69
2021/12/26 06:07:37;;;;;;;;;;;;;;;;;;5052504;28;19939;-70
2021/12/26 06:10:05;;;;;;;;;;;;;;;;;;5052520;28;19924;-70
2021/12/26 06:12:33;;;;;;;;;;;;;;;;;;5052590;28;19916;-69
2021/12/26 06:14:58;;;;;;;;;;;;;;;;;;5036118;28;19962;-70
2021/12/26 06:17:23;;;;;;;;;;;;;;;;;;5036069;28;20015;-70
2021/12/26 06:20:14;;;;;;;;;;;;;;;;;;5034164;28;19916;-69
2021/12/26 06:22:58;;;;;;;;;;;;;;;;;;5054035;28;19923;-69
2021/12/26 06:25:56;;;;;;;;;;;;;;;;;;5053653;28;20370;-70
2021/12/26 06:28:27;;;;;;;;;;;;;;;;;;5052133;28;19974;-70
2021/12/26 06:31:11;;;;;;;;;;;;;;;;;;5053546;28;19923;-70
2021/12/26 06:33:55;;;;;;;;;;;;;;;;;;5053740;28;19939;-70
2021/12/26 06:36:39;;;;;;;;;;;;;;;;;;5053675;28;19924;-70
2021/12/26 06:39:33;;;;;;;;;;;;;;;;;;5016830;28;19971;-70
2021/12/26 06:42:17;;;;;;;;;;;;;;;;;;5053645;28;19988;-70
2021/12/26 06:45:01;;;;;;;;;;;;;;;;;;5052919;28;19959;-69
2021/12/26 06:47:46;;;;;;;;;;;;;;;;;;5052270;28;19962;-69
2021/12/26 06:50:11;;;;;;;;;;;;;;;;;;5051972;28;19960;-70
2021/12/26 06:52:37;;;;;;;;;;;;;;;;;;5053533;28;20293;-70
2021/12/26 06:55:03;;;;;;;;;;;;;;;;;;5053607;28;20011;-70
2021/12/26 06:57:28;;;;;;;;;;;;;;;;;;5053364;28;19923;-70
2021/12/26 06:59:53;;;;;;;;;;;;;;;;;;5052123;28;19917;-70
2021/12/26 07:02:19;;;;;;;;;;;;;;;;;;5055424;28;20378;-70
2021/12/26 07:04:50;;;;;;;;;;;;;;;;;;5040592;28;20385;-70
2021/12/26 07:07:20;;;;;;;;;;;;;;;;;;5056028;28;19947;-71
2021/12/26 07:09:45;;;;;;;;;;;;;;;;;;5056078;28;20002;-70
2021/12/26 07:12:14;;;;;;;;;;;;;;;;;;5056153;28;19920;-70
2021/12/26 07:14:50;;;;;;;;;;;;;;;;;;5055599;28;19916;-69
2021/12/26 07:17:15;;;;;;;;;;;;;;;;;;5015901;28;19939;-72
2021/12/26 07:19:45;;;;;;;;;;;;;;;;;;5016458;28;19918;-71
2021/12/26 07:22:29;;;;;;;;;;;;;;;;;;5016090;28;19971;-72
2021/12/26 07:24:54;;;;;;;;;;;;;;;;;;5016110;28;19917;-72
2021/12/26 07:27:19;;;;;;;;;;;;;;;;;;5015895;28;19917;-72
2021/12/26 07:30:17;;;;;;;;;;;;;;;;;;5000404;28;19921;-72
2021/12/26 07:32:43;;;;;;;;;;;;;;;;;;5016151;28;20350;-72
2021/12/26 07:35:08;;;;;;;;;;;;;;;;;;5016847;28;19921;-74
2021/12/26 07:37:37;;;;;;;;;;;;;;;;;;5015754;28;20533;-72
2021/12/26 07:40:04;;;;;;;;;;;;;;;;;;5018052;28;20286;-71
2021/12/26 07:42:29;;;;;;;;;;;;;;;;;;5028120;28;19963;-72
2021/12/26 07:45:33;;;;;;;;;;;;;;;;;;4986019;28;20069;-71
2021/12/26 07:48:01;;;;;;;;;;;;;;;;;;4953324;28;20018;-71
2021/12/26 07:50:27;;;;;;;;;;;;;;;;;;4997723;28;20498;-71
2021/12/26 07:53:12;;;;;;;;;;;;;;;;;;5016838;28;19940;-71
2021/12/26 07:55:56;;;;;;;;;;;;;;;;;;5016223;28;19924;-71
2021/12/26 07:58:40;;;;;;;;;;;;;;;;;;5016763;28;19924;-71
2021/12/26 08:01:28;;;;;;;;;;;;;;;;;;5016725;28;19956;-71
2021/12/26 08:04:14;;;;;;;;;;;;;;;;;;4995711;28;19926;-71
2021/12/26 08:06:59;;;;;;;;;;;;;;;;;;5016530;28;19971;-73
2021/12/26 08:09:24;;;;;;;;;;;;;;;;;;5016613;28;19925;-74
2021/12/26 08:11:50;;;;;;;;;;;;;;;;;;5015538;28;20279;-74
2021/12/26 08:14:17;;;;;;;;;;;;;;;;;;5033864;28;20374;-74
2021/12/26 08:16:42;;;;;;;;;;;;;;;;;;5036167;28;19924;-72
2021/12/26 08:19:07;;;;;;;;;;;;;;;;;;5035547;28;19943;-72
2021/12/26 08:21:33;;;;;;;;;;;;;;;;;;5018208;28;19924;-71
2021/12/26 08:23:59;;;;;;;;;;;;;;;;;;5036159;28;19917;-71
2021/12/26 08:26:24;;;;;;;;;;;;;;;;;;5034649;28;19927;-71
2021/12/26 08:28:50;;;;;;;;;;;;;;;;;;5034832;28;19921;-73
2021/12/26 08:31:17;;;;;;;;;;;;;;;;;;5034874;28;20375;-72
2021/12/26 08:33:43;;;;;;;;;;;;;;;;;;5036017;28;20357;-72
2021/12/26 08:36:08;;;;;;;;;;;;;;;;;;5035801;28;19917;-72
2021/12/26 08:38:34;;;;;;;;;;;;;;;;;;5034668;28;19925;-72
2021/12/26 08:41:00;;;;;;;;;;;;;;;;;;5034533;28;20000;-72
2021/12/26 08:43:26;;;;;;;;;;;;;;;;;;5048247;28;19916;-73
2021/12/26 08:45:51;;;;;;;;;;;;;;;;;;5055527;28;20392;-74
2021/12/26 08:48:17;;;;;;;;;;;;;;;;;;5055345;28;20778;-73
2021/12/26 08:50:43;;;;;;;;;;;;;;;;;;5055770;28;19917;-71
2021/12/26 08:53:08;;;;;;;;;;;;;;;;;;5055656;28;19924;-72
2021/12/26 08:55:34;;;;;;;;;;;;;;;;;;5055378;28;19917;-72
2021/12/26 08:57:59;;;;;;;;;;;;;;;;;;5055560;28;19917;-72
2021/12/26 09:00:25;;;;;;;;;;;;;;;;;;5055463;28;20075;-72
2021/12/26 09:02:50;;;;;;;;;;;;;;;;;;5055290;28;19920;-72
2021/12/26 09:05:16;;;;;;;;;;;;;;;;;;5055378;28;19917;-72
2021/12/26 09:07:42;;;;;;;;;;;;;;;;;;5055376;28;19962;-72
2021/12/26 09:10:08;;;;;;;;;;;;;;;;;;5055164;28;19947;-72
2021/12/26 09:12:33;;;;;;;;;;;;;;;;;;5055169;28;19959;-72
2021/12/26 09:14:59;;;;;;;;;;;;;;;;;;5055252;28;19952;-72
2021/12/26 09:17:24;;;;;;;;;;;;;;;;;;5054677;28;20005;-72
2021/12/26 09:19:49;;;;;;;;;;;;;;;;;;5055270;28;19944;-72
2021/12/26 09:22:15;;;;;;;;;;;;;;;;;;5055031;28;19971;-72
2021/12/26 09:24:41;;;;;;;;;;;;;;;;;;5053704;28;19963;-73
2021/12/26 09:27:07;;;;;;;;;;;;;;;;;;5054930;28;19956;-72
2021/12/26 09:29:32;;;;;;;;;;;;;;;;;;5036889;28;20432;-72
2021/12/26 09:31:57;;;;;;;;;;;;;;;;;;5054926;28;20384;-72
2021/12/26 09:34:23;;;;;;;;;;;;;;;;;;5054611;28;19923;-72
2021/12/26 09:36:49;;;;;;;;;;;;;;;;;;5054587;28;19917;-73
2021/12/26 09:39:15;;;;;;;;;;;;;;;;;;5054679;28;19921;-72
2021/12/26 09:41:41;;;;;;;;;;;;;;;;;;5052932;28;19960;-72
2021/12/26 09:44:07;;;;;;;;;;;;;;;;;;5054539;28;19986;-72
2021/12/26 09:46:41;;;;;;;;;;;;;;;;;;5091255;27;20290;-72
2021/12/26 09:49:06;;;;;;;;;;;;;;;;;;5091102;28;19923;-72
2021/12/26 09:51:32;;;;;;;;;;;;;;;;;;5091288;28;19942;-72
2021/12/26 09:53:57;;;;;;;;;;;;;;;;;;5091220;28;19916;-72
2021/12/26 09:56:22;;;;;;;;;;;;;;;;;;5088980;28;20373;-71
2021/12/26 09:58:55;;;;;;;;;;;;;;;;;;5091437;28;19923;-71
2021/12/26 10:01:31;;;;;;;;;;;;;;;;;;5090781;28;20374;-72
2021/12/26 10:03:59;;;;;;;;;;;;;;;;;;5090995;28;19921;-70
2021/12/26 10:06:25;;;;;;;;;;;;;;;;;;5090975;28;19966;-72
2021/12/26 10:08:57;;;;;;;;;;;;;;;;;;5090791;28;19962;-70
2021/12/26 10:11:25;;;;;;;;;;;;;;;;;;5090957;28;19921;-71
2021/12/26 10:13:52;;;;;;;;;;;;;;;;;;5090382;28;19917;-71
2021/12/26 10:16:20;;;;;;;;;;;;;;;;;;5072756;28;19924;-71
2021/12/26 10:18:46;;;;;;;;;;;;;;;;;;5091079;28;19916;-71
2021/12/26 10:21:23;;;;;;;;;;;;;;;;;;5090884;28;20058;-71
2021/12/26 10:23:49;;;;;;;;;;;;;;;;;;5089969;28;19916;-71
2021/12/26 10:26:19;;;;;;;;;;;;;;;;;;5090240;28;19916;-72
2021/12/26 10:29:02;;;;;;;;;;;;;;;;;;5090632;28;19923;-71
2021/12/26 10:31:27;;;;;;;;;;;;;;;;;;5090463;28;19916;-71
2021/12/26 10:33:53;;;;;;;;;;;;;;;;;;5090429;28;20296;-71
2021/12/26 10:36:18;;;;;;;;;;;;;;;;;;5090219;28;20011;-71
2021/12/26 10:39:04;;;;;;;;;;;;;;;;;;5088964;28;20369;-71
2021/12/26 10:41:29;;;;;;;;;;;;;;;;;;5088593;28;19955;-72
2021/12/26 10:43:54;;;;;;;;;;;;;;;;;;5088927;28;19968;-72
2021/12/26 10:46:19;;;;;;;;;;;;;;;;;;5107689;28;19955;-72
2021/12/26 10:48:45;;;;;;;;;;;;;;;;;;5110553;28;19923;-72
2021/12/26 10:51:30;;;;;;;;;;;;;;;;;;5110437;28;19916;-72
2021/12/26 10:54:12;;;;;;;;;;;;;;;;;;5110410;28;20322;-71
2021/12/26 10:56:37;;;;;;;;;;;;;;;;;;5104666;28;19915;-72
2021/12/26 10:59:19;;;;;;;;;;;;;;;;;;5096580;28;20445;-71
2021/12/26 11:01:44;;;;;;;;;;;;;;;;;;5096772;28;20243;-71
2021/12/26 11:04:11;;;;;;;;;;;;;;;;;;5096708;28;19948;-72
2021/12/26 11:06:55;;;;;;;;;;;;;;;;;;5096507;28;20396;-72
2021/12/26 11:09:20;;;;;;;;;;;;;;;;;;5095782;28;20446;-72
2021/12/26 11:11:59;;;;;;;;;;;;;;;;;;5096433;28;19920;-72
2021/12/26 11:14:24;;;;;;;;;;;;;;;;;;5095916;28;19924;-72
2021/12/26 11:16:50;;;;;;;;;;;;;;;;;;5095164;28;19916;-72
2021/12/26 11:19:15;;;;;;;;;;;;;;;;;;5096565;28;19945;-72
2021/12/26 11:21:41;;;;;;;;;;;;;;;;;;5094804;28;19960;-72
2021/12/26 11:24:07;;;;;;;;;;;;;;;;;;5096218;28;19990;-72
2021/12/26 11:26:32;;;;;;;;;;;;;;;;;;5095915;28;19920;-72
2021/12/26 11:28:57;;;;;;;;;;;;;;;;;;5096333;28;19959;-72
2021/12/26 11:31:25;;;;;;;;;;;;;;;;;;5096307;28;19963;-72
2021/12/26 11:33:55;;;;;;;;;;;;;;;;;;5096464;28;19923;-72
2021/12/26 11:36:22;;;;;;;;;;;;;;;;;;5096113;28;19942;-72
2021/12/26 11:38:56;;;;;;;;;;;;;;;;;;5093427;28;19993;-72
2021/12/26 11:41:46;;;;;;;;;;;;;;;;;;5096257;28;19923;-72
2021/12/26 11:44:33;;;;;;;;;;;;;;;;;;5095844;28;20315;-73
2021/12/26 11:47:56;;;;;;;;;;;;;;;;;;5033474;28;19971;-72
2021/12/26 11:51:23;;;;;;;;;;;;;;;;;;5033397;28;19971;-72
2021/12/26 11:54:12;;;;;;;;;;;;;;;;;;5083705;28;19923;-72
2021/12/26 11:56:48;;;;;;;;;;;;;;;;;;5094122;28;19960;-72
2021/12/26 11:59:16;;;;;;;;;;;;;;;;;;5095742;28;20007;-72
2021/12/26 12:01:44;;;;;;;;;;;;;;;;;;5095513;28;19920;-72
2021/12/26 12:04:17;;;;;;;;;;;;;;;;;;5095618;28;19916;-72
2021/12/26 12:06:42;;;;;;;;;;;;;;;;;;5095370;28;19916;-72
2021/12/26 12:09:26;;;;;;;;;;;;;;;;;;5094703;28;20031;-72
2021/12/26 12:11:58;;;;;;;;;;;;;;;;;;5095521;28;19981;-72
2021/12/26 12:14:42;;;;;;;;;;;;;;;;;;5095415;28;20269;-72
2021/12/26 12:17:29;;;;;;;;;;;;;;;;;;5095299;28;19923;-72
2021/12/26 12:20:13;;;;;;;;;;;;;;;;;;5094958;28;19920;-72
2021/12/26 12:22:58;;;;;;;;;;;;;;;;;;5105010;28;19923;-72
2021/12/26 12:25:36;;;;;;;;;;;;;;;;;;5114911;28;20045;-72
2021/12/26 12:28:05;;;;;;;;;;;;;;;;;;5115666;28;20376;-72
2021/12/26 12:30:31;;;;;;;;;;;;;;;;;;5115557;28;19919;-72
2021/12/26 12:33:15;;;;;;;;;;;;;;;;;;5115296;28;20006;-72
2021/12/26 12:35:59;;;;;;;;;;;;;;;;;;5108391;28;19955;-72
2021/12/26 12:38:24;;;;;;;;;;;;;;;;;;5095193;28;20364;-72
2021/12/26 12:40:49;;;;;;;;;;;;;;;;;;5094685;28;20002;-72
2021/12/26 12:43:18;;;;;;;;;;;;;;;;;;5094754;28;20396;-72
2021/12/26 12:45:52;;;;;;;;;;;;;;;;;;5094382;28;19920;-72
2021/12/26 12:48:21;;;;;;;;;;;;;;;;;;5093499;28;19916;-72
2021/12/26 12:50:46;;;;;;;;;;;;;;;;;;5094736;28;19923;-72
2021/12/26 12:53:30;;;;;;;;;;;;;;;;;;5094665;28;20002;-72
2021/12/26 12:55:55;;;;;;;;;;;;;;;;;;5094355;28;20311;-72
2021/12/26 12:58:23;;;;;;;;;;;;;;;;;;5094639;28;19965;-72
2021/12/26 13:00:49;;;;;;;;;;;;;;;;;;5093432;28;20274;-72
2021/12/26 13:03:16;;;;;;;;;;;;;;;;;;5093710;28;19925;-72
2021/12/26 13:05:42;;;;;;;;;;;;;;;;;;5093785;28;19927;-72
2021/12/26 13:08:09;;;;;;;;;;;;;;;;;;5094546;28;20445;-72
2021/12/26 13:10:35;;;;;;;;;;;;;;;;;;5094282;28;20384;-72
2021/12/26 13:13:04;;;;;;;;;;;;;;;;;;5093202;28;19916;-72
2021/12/26 13:15:29;;;;;;;;;;;;;;;;;;5094197;28;19916;-72
2021/12/26 13:17:55;;;;;;;;;;;;;;;;;;5094181;28;19916;-72
2021/12/26 13:20:21;;;;;;;;;;;;;;;;;;5094150;28;19923;-72
2021/12/26 13:22:48;;;;;;;;;;;;;;;;;;5094280;28;19915;-72
2021/12/26 13:25:45;;;;;;;;;;;;;;;;;;5093986;28;19969;-72
2021/12/26 13:28:10;;;;;;;;;;;;;;;;;;5081609;28;19916;-72
2021/12/26 13:30:39;;;;;;;;;;;;;;;;;;5094026;28;19916;-72
2021/12/26 13:33:12;;;;;;;;;;;;;;;;;;5093968;28;19916;-72
2021/12/26 13:35:38;;;;;;;;;;;;;;;;;;5092565;28;20045;-72
2021/12/26 13:38:06;;;;;;;;;;;;;;;;;;5093197;28;19923;-72
2021/12/26 13:40:42;;;;;;;;;;;;;;;;;;5093960;28;19961;-72
2021/12/26 13:43:08;;;;;;;;;;;;;;;;;;5093948;28;19969;-72
2021/12/26 13:45:34;;;;;;;;;;;;;;;;;;5093570;28;19927;-72
2021/12/26 13:48:00;;;;;;;;;;;;;;;;;;5093870;28;19916;-72
2021/12/26 13:50:26;;;;;;;;;;;;;;;;;;5093824;28;19916;-72
2021/12/26 13:52:58;;;;;;;;;;;;;;;;;;5092882;28;19927;-72
2021/12/26 13:55:24;;;;;;;;;;;;;;;;;;5090781;28;20377;-72
2021/12/26 13:57:56;;;;;;;;;;;;;;;;;;5093426;28;19923;-72
2021/12/26 14:00:22;;;;;;;;;;;;;;;;;;5093583;28;19920;-72
2021/12/26 14:02:47;;;;;;;;;;;;;;;;;;5092403;28;20330;-72
2021/12/26 14:05:13;;;;;;;;;;;;;;;;;;5091658;28;19920;-72
2021/12/26 14:07:43;;;;;;;;;;;;;;;;;;5093721;28;19916;-72
2021/12/26 14:10:15;;;;;;;;;;;;;;;;;;5093028;28;19916;-72
2021/12/26 14:12:46;;;;;;;;;;;;;;;;;;5093756;28;19916;-72
2021/12/26 14:15:34;;;;;;;;;;;;;;;;;;5093407;28;20014;-72
2021/12/26 14:18:20;;;;;;;;;;;;;;;;;;5093647;28;19916;-72
2021/12/26 14:20:48;;;;;;;;;;;;;;;;;;5093262;28;20399;-72
2021/12/26 14:23:21;;;;;;;;;;;;;;;;;;5093379;28;19969;-72
2021/12/26 14:25:48;;;;;;;;;;;;;;;;;;5093375;28;20373;-72
2021/12/26 14:28:17;;;;;;;;;;;;;;;;;;5091980;28;19923;-72
2021/12/26 14:30:44;;;;;;;;;;;;;;;;;;5092279;28;19916;-72
2021/12/26 14:33:11;;;;;;;;;;;;;;;;;;5095749;28;19966;-72
2021/12/26 14:35:36;;;;;;;;;;;;;;;;;;5096034;28;20238;-72
2021/12/26 14:38:05;;;;;;;;;;;;;;;;;;5096860;28;19931;-72
2021/12/26 14:40:34;;;;;;;;;;;;;;;;;;5097240;28;19923;-72
2021/12/26 14:43:05;;;;;;;;;;;;;;;;;;5096023;28;19919;-72
2021/12/26 14:45:31;;;;;;;;;;;;;;;;;;5096561;28;19940;-72
2021/12/26 14:47:56;;;;;;;;;;;;;;;;;;5095770;28;20277;-72
2021/12/26 14:50:23;;;;;;;;;;;;;;;;;;5096919;28;19927;-72
2021/12/26 14:52:54;;;;;;;;;;;;;;;;;;5096284;28;19985;-72
2021/12/26 14:55:25;;;;;;;;;;;;;;;;;;5096891;28;19916;-72
2021/12/26 14:57:50;;;;;;;;;;;;;;;;;;5094879;28;19916;-72
2021/12/26 15:00:18;;;;;;;;;;;;;;;;;;5096777;28;19916;-72
2021/12/26 15:02:44;;;;;;;;;;;;;;;;;;5096927;28;20377;-72
2021/12/26 15:05:10;;;;;;;;;;;;;;;;;;5095678;28;20372;-73
2021/12/26 15:07:40;;;;;;;;;;;;;;;;;;5096625;28;19916;-72
2021/12/26 15:10:09;;;;;;;;;;;;;;;;;;5096664;28;20274;-72
2021/12/26 15:12:41;;;;;;;;;;;;;;;;;;5096306;28;19922;-72
2021/12/26 15:15:07;;;;;;;;;;;;;;;;;;5096120;28;19916;-72
2021/12/26 15:17:32;;;;;;;;;;;;;;;;;;5095091;28;19923;-72
2021/12/26 15:19:57;;;;;;;;;;;;;;;;;;5095150;28;19912;-72
2021/12/26 15:22:34;;;;;;;;;;;;;;;;;;5096494;28;19916;-72
2021/12/26 15:24:59;;;;;;;;;;;;;;;;;;5096344;28;19920;-72
2021/12/26 15:27:28;;;;;;;;;;;;;;;;;;5096277;28;19924;-72
2021/12/26 15:29:54;;;;;;;;;;;;;;;;;;5094935;28;19923;-72
2021/12/26 15:32:19;;;;;;;;;;;;;;;;;;5096234;28;19916;-72
2021/12/26 15:34:46;;;;;;;;;;;;;;;;;;5095565;28;19923;-72
2021/12/26 15:37:12;;;;;;;;;;;;;;;;;;5095929;28;20053;-72
2021/12/26 15:39:37;;;;;;;;;;;;;;;;;;5094781;28;19923;-72
2021/12/26 15:42:03;;;;;;;;;;;;;;;;;;5094755;28;20011;-72
2021/12/26 15:44:28;;;;;;;;;;;;;;;;;;5095686;28;19926;-73
2021/12/26 15:46:53;;;;;;;;;;;;;;;;;;5095944;28;20027;-72
2021/12/26 15:49:19;;;;;;;;;;;;;;;;;;5095934;28;19923;-72
2021/12/26 15:51:45;;;;;;;;;;;;;;;;;;5095863;28;19932;-72
2021/12/26 15:54:12;;;;;;;;;;;;;;;;;;5094721;28;20006;-72
2021/12/26 15:56:38;;;;;;;;;;;;;;;;;;5094548;28;19923;-72
2021/12/26 15:59:04;;;;;;;;;;;;;;;;;;5095668;28;20369;-72
2021/12/26 16:01:29;;;;;;;;;;;;;;;;;;5095059;28;19922;-72
2021/12/26 16:03:55;;;;;;;;;;;;;;;;;;5094510;28;20014;-72
2021/12/26 16:06:20;;;;;;;;;;;;;;;;;;5092750;28;19922;-72
2021/12/26 16:08:45;;;;;;;;;;;;;;;;;;5094382;28;19926;-73
2021/12/26 16:11:11;;;;;;;;;;;;;;;;;;5094563;28;19920;-72
2021/12/26 16:13:36;;;;;;;;;;;;;;;;;;5094973;28;20252;-73
2021/12/26 16:16:02;;;;;;;;;;;;;;;;;;5095027;28;19939;-72
2021/12/26 16:18:29;;;;;;;;;;;;;;;;;;5093476;28;19951;-72
2021/12/26 16:20:54;;;;;;;;;;;;;;;;;;5095380;28;20014;-72
2021/12/26 16:23:20;;;;;;;;;;;;;;;;;;5094646;28;20015;-73
2021/12/26 16:25:46;;;;;;;;;;;;;;;;;;5094559;28;19999;-73
2021/12/26 16:28:11;;;;;;;;;;;;;;;;;;5094707;28;19933;-75
2021/12/26 16:30:38;;;;;;;;;;;;;;;;;;5092738;28;19969;-72
2021/12/26 16:33:06;;;;;;;;;;;;;;;;;;5094257;28;19916;-72
2021/12/26 16:35:32;;;;;;;;;;;;;;;;;;5094546;28;19920;-73
2021/12/26 16:37:57;;;;;;;;;;;;;;;;;;5093471;28;20285;-73
2021/12/26 16:40:23;;;;;;;;;;;;;;;;;;5093646;28;19939;-72
2021/12/26 16:42:48;;;;;;;;;;;;;;;;;;5094788;28;19977;-73
2021/12/26 16:45:14;;;;;;;;;;;;;;;;;;5093431;28;19924;-74
2021/12/26 16:47:39;;;;;;;;;;;;;;;;;;5094456;28;19923;-73
2021/12/26 16:50:05;;;;;;;;;;;;;;;;;;5094610;28;20014;-73
2021/12/26 16:52:31;;;;;;;;;;;;;;;;;;5093518;28;19920;-73
2021/12/26 16:54:56;;;;;;;;;;;;;;;;;;5093983;28;19916;-73
2021/12/26 16:57:22;;;;;;;;;;;;;;;;;;5093155;28;20003;-73
2021/12/26 16:59:47;;;;;;;;;;;;;;;;;;5094397;28;19951;-73
2021/12/26 17:02:12;;;;;;;;;;;;;;;;;;5094543;28;19916;-73
2021/12/26 17:04:38;;;;;;;;;;;;;;;;;;5093374;28;20018;-73
2021/12/26 17:07:04;;;;;;;;;;;;;;;;;;5075719;28;20009;-73